Tiempo atmosférico en la estación meteorológica de Jimena de la Frontera, Cádiz (50 m.)



Fecha
DESCASC
Temp. máxima en grados centígrados (hora)
DESCASC
Temp. mínima en grados centígrados (hora)
DESCASC
Temp. media en grados centígrados
DESCASC
Racha de viento máxima en m/sg (hora)
DESCASC
Velocidad máxima media en intervalos de 10 minutos(hora)
DESCASC
Precipitaciones diarias en mm
DESCASC
Precipitaciones de 00:00 a 06:00 en mm
DESCASC
Precipitaciones de 06:00 a 12:00 en mm
DESCASC
Precipitaciones de 12:00 a 18:00 en mm
DESCASC
Precipitaciones de 18:00 a 24:00 en mm
DESCASC
05-08-2019 38.6 (14:00) 18.1 (00:00) 28.3 10.28 (14:30) 6.39 (14:30) 0 0 0 0 0
18-08-2019 35.1 (16:10) 14.7 (07:20) 24.9 10.56 (14:20) 6.67 (14:20) 0 0 0 0 0
17-08-2019 33.2 (17:20) 14.6 (07:40) 23.9 8.06 (14:50) 5.28 (17:50) 0 0 0 0 0
16-08-2019 32.7 (15:20) 15.7 (07:20) 24.2 10.56 (15:40) 5 (14:00) 0 0 0 0 0
15-08-2019 32.6 (15:20) 16.8 (00:00) 24.7 9.17 (15:30) 5 (15:50) 0 0 0 0 0
14-08-2019 30.5 (16:40) 20.9 (00:00) 25.7 12.22 (15:40) 7.22 (13:40) 0 0 0 0 0
13-08-2019 32.2 (15:50) 13.1 (00:00) 22.7 11.11 (16:20) 5.83 (18:40) 0 0 0 0 0
12-08-2019 36.6 (16:00) 15.1 (00:00) 25.8 10.28 (11:20) 5.56 (11:40) 0 0 0 0 0
11-08-2019 35.2 (17:10) 20.1 (00:00) 27.7 12.78 (16:20) 7.22 (17:50) 0 0 0 0 0
10-08-2019 38 (15:50) 21 (00:00) 29.5 9.72 (16:40) 6.11 (19:00) 0 0 0 0 0
09-08-2019 36.3 (17:00) 16.2 (00:00) 26.3 11.39 (13:20) 6.67 (15:30) 0 0 0 0 0
08-08-2019 39.1 (15:20) 18.2 (00:00) 28.6 8.89 (22:10) 4.72 (17:40) 0 0 0 0 0
07-08-2019 38 (16:20) 15.8 (00:00) 26.9 10 (15:20) 6.11 (15:50) 0 0 0 0 0
06-08-2019 40.8 (16:00) 15.5 (00:00) 28.1 8.61 (18:20) 5.28 (17:50) 0 0 0 0 0
22-07-2019 30.9 (15:40) 23.9 (00:00) 27.4 13.06 (13:10) 7.22 (16:20) 0 0 0 0 0
04-08-2019 38.9 (16:30) 17.2 (00:00) 28.1 8.61 (17:50) 4.72 (18:00) 0 0 0 0 0
03-08-2019 33.9 (15:10) 16.8 (00:00) 25.4 8.33 (17:10) 4.17 (17:10) 0 0 0 0 0
02-08-2019 38.6 (14:50) 16.9 (00:00) 27.7 9.17 (15:30) 5.28 (13:30) 0 0 0 0 0
01-08-2019 32.3 (17:40) 23.1 (00:00) 27.7 9.17 (07:20) 5 (07:20) 0 0 0 0 0
31-07-2019 30.2 (16:40) 18.4 (00:00) 24.3 15 (13:20) 8.89 (14:10) 0 0 0 0 0
30-07-2019 37.8 (14:40) 16.3 (00:00) 27 9.17 (15:50) 5.56 (16:50) 0 0 0 0 0
29-07-2019 34.9 (15:50) 16.4 (00:00) 25.7 13.06 (17:40) 6.94 (16:30) 0 0 0 0 0
28-07-2019 32.5 (16:20) 18.6 (00:00) 25.6 10.28 (18:00) 6.11 (18:10) 0 0 0 0 0
27-07-2019 29.8 (14:00) 19.4 (00:00) 24.6 12.22 (16:30) 7.22 (15:30) 0 0 0 0 0
26-07-2019 31.9 (15:30) 17.2 (00:00) 24.6 11.39 (17:00) 7.5 (17:40) 0 0 0 0 0
25-07-2019 34.8 (16:40) 16.3 (00:00) 25.5 8.61 (21:20) 5 (17:10) 0 0 0 0 0
24-07-2019 33.1 (15:40) 18.9 (00:00) 26 12.5 (16:10) 7.22 (15:30) 0 0 0 0 0
23-07-2019 31.4 (16:20) 21 (00:00) 26.2 14.17 (11:40) 8.33 (15:40) 0 0 0 0 0

Gráficas

Temp. máximas Temp. mínimas Temp. medias Precipitaciones Rachas de viento máximas Velocidades máximas media en intervalos de 10 minutos

Datos horarios

Fecha y hora oficial Temperatura (ºC) Velocidad del viento (km/h) Dirección del viento Racha (km/h) Dirección de racha Precipitación (mm) Presión (hPa) Tendencia (hPa) Humedad (%)
2019-08-20 23:00:00 24 3 Sudoeste 6 Sudoeste 0 -- -- 67
2019-08-20 22:00:00 25.7 5 Sur 14 Sur 0 -- -- 63
2019-08-20 21:00:00 27.5 9 Sudeste 22 Sudeste 0 -- -- 59
2019-08-20 20:00:00 30.7 12 Sudeste 19 Sudeste 0 -- -- 49
2019-08-20 19:00:00 32.4 8 Sudeste 21 Sur 0 -- -- 44
2019-08-20 18:00:00 32.2 10 Sudeste 27 Sur 0 -- -- 45
2019-08-20 17:00:00 31.8 14 Sudeste 31 Sudeste 0 -- -- 48
2019-08-20 16:00:00 31.3 21 Sudeste 35 Sudeste 0 -- -- 52
2019-08-20 15:00:00 32.7 18 Sudeste 31 Sudeste 0 -- -- 47
2019-08-20 14:00:00 33.1 10 Sudeste 18 Este 0 -- -- 40
2019-08-20 13:00:00 32.5 5 Sudeste 13 Sur 0 -- -- 32
2019-08-20 12:00:00 30.4 4 Sudeste 13 Sudeste 0 -- -- 41
2019-08-20 11:00:00 27.2 3 Noroeste 6 Sudeste 0 -- -- 46
2019-08-20 10:00:00 26 0 Calma 5 Sudeste 0 -- -- 42
2019-08-20 09:00:00 21.3 3 Este 6 Este 0 -- -- 55
2019-08-20 08:00:00 16.5 2 Norte 9 Este 0 -- -- 70
2019-08-20 07:00:00 16.8 4 Este 9 Nordeste 0 -- -- 66
2019-08-20 06:00:00 17.6 5 Este 9 Este 0 -- -- 65
2019-08-20 05:00:00 17.9 5 Sudeste 9 Este 0 -- -- 65
2019-08-20 04:00:00 18.1 4 Nordeste 10 Oeste 0 -- -- 65
2019-08-20 03:00:00 18.6 5 Nordeste 11 Este 0 -- -- 64
2019-08-20 02:00:00 19.6 4 Norte 10 Oeste 0 -- -- 62
2019-08-20 01:00:00 21.3 4 Sudeste 17 Oeste 0 -- -- 58
2019-08-20 00:00:00 22.6 5 Sudoeste 13 Oeste 0 -- -- 54
2019-08-19 23:00:00 24 5 Oeste 11 Oeste 0 -- -- 49
2019-08-19 22:00:00 27 6 Oeste 21 Noroeste 0 -- -- 43
2019-08-19 21:00:00 29.5 15 Oeste 32 Oeste 0 -- -- 39
2019-08-19 20:00:00 32.4 18 Oeste 32 Oeste 0 -- -- 38
2019-08-19 19:00:00 33.9 19 Oeste 36 Oeste 0 -- -- 38
2019-08-19 18:00:00 34.9 18 Oeste 36 Oeste 0 -- -- 39
2019-08-19 17:00:00 34.2 22 Oeste 43 Oeste 0 -- -- 45
2019-08-19 16:00:00 35.3 22 Oeste 37 Oeste 0 -- -- 41
2019-08-19 15:00:00 35.1 23 Oeste 40 Oeste 0 -- -- 41
2019-08-19 14:00:00 35 20 Oeste 37 Oeste 0 -- -- 39
2019-08-19 13:00:00 34 21 Oeste 35 Oeste 0 -- -- 41
2019-08-19 12:00:00 32.1 17 Oeste 31 Oeste 0 -- -- 46
2019-08-19 11:00:00 29.4 14 Oeste 27 Noroeste 0 -- -- 54
2019-08-19 10:00:00 27.3 13 Oeste 24 Oeste 0 -- -- 57
2019-08-19 09:00:00 22 3 Norte 13 Noroeste 0 -- -- 64
2019-08-19 08:00:00 16 6 Nordeste 11 Este 0 -- -- 76
2019-08-19 07:00:00 16.3 9 Este 10 Este 0 -- -- 75
2019-08-19 06:00:00 17.3 8 Este 10 Este 0 -- -- 73
2019-08-19 05:00:00 17.7 4 Este 8 Sudoeste 0 -- -- 68
2019-08-19 04:00:00 17.5 4 Sudeste 8 Este 0 -- -- 66
2019-08-19 03:00:00 17.6 2 Este 10 Nordeste 0 -- -- 67
2019-08-19 02:00:00 17.9 5 Este 9 Este 0 -- -- 66
2019-08-19 01:00:00 19.1 6 Este 11 Nordeste 0 -- -- 63
2019-08-19 00:00:00 21.2 2 Sudoeste 10 Oeste 0 -- -- 59
2019-08-18 23:00:00 23.5 3 Noroeste 11 Oeste 0 -- -- 53
2019-08-18 22:00:00 27.2 2 Nordeste 26 Oeste 0 -- -- 45
2019-08-18 21:00:00 29.6 15 Oeste 30 Oeste 0 -- -- 42
2019-08-18 20:00:00 31.7 17 Oeste 33 Oeste 0 -- -- 45
2019-08-18 19:00:00 33.4 18 Oeste 33 Noroeste 0 -- -- 43
2019-08-18 18:00:00 34.6 16 Oeste 35 Oeste 0 -- -- 41
2019-08-18 17:00:00 34.4 20 Oeste 36 Oeste 0 -- -- 42
2019-08-18 16:00:00 34.7 18 Oeste 35 Oeste 0 -- -- 37
2019-08-18 15:00:00 33.9 19 Oeste 38 Oeste 0 -- -- 37
2019-08-18 14:00:00 33.2 20 Oeste 36 Oeste 0 -- -- 41
2019-08-18 13:00:00 32.2 21 Oeste 33 Oeste 0 -- -- 45
2019-08-18 12:00:00 32.1 15 Oeste 23 Oeste 0 -- -- 44
2019-08-18 11:00:00 29.6 2 Este 7 Sudeste 0 -- -- 43
2019-08-18 10:00:00 24.9 0 Calma 3 Sudoeste 0 -- -- 55
2019-08-18 09:00:00 19.9 0 Calma 6 Este 0 -- -- 73
2019-08-18 08:00:00 14.8 3 Nordeste 6 Nordeste 0 -- -- 88
2019-08-18 07:00:00 14.9 3 Este 4 Este 0 -- -- 88
2019-08-18 06:00:00 15.2 5 Nordeste 6 Este 0 -- -- 87
2019-08-18 05:00:00 16 0 Calma 6 Nordeste 0 -- -- 86
2019-08-18 04:00:00 16.4 4 Nordeste 6 Este 0 -- -- 85
2019-08-18 03:00:00 17.1 6 Nordeste 8 Nordeste 0 -- -- 84
2019-08-18 02:00:00 18.2 4 Nordeste 6 Nordeste 0 -- -- 82
2019-08-18 01:00:00 19.3 5 Nordeste 8 Nordeste 0 -- -- 80
2019-08-18 00:00:00 20.3 5 Nordeste 8 Nordeste 0 -- -- 78
2019-08-17 23:00:00 21.9 3 Nordeste 6 Este 0 -- -- 74
2019-08-17 22:00:00 24.3 4 Este 8 Sur 0 -- -- 70
2019-08-17 21:00:00 27.2 4 Sur 12 Sur 0 -- -- 61
2019-08-17 20:00:00 29.8 6 Sudeste 22 Sudeste 0 -- -- 49
2019-08-17 19:00:00 31.8 9 Sudeste 23 Sudeste 0 -- -- 42
2019-08-17 18:00:00 32.2 16 Sudeste 29 Sudeste 0 -- -- 41
2019-08-17 17:00:00 32.9 14 Sudeste 29 Sur 0 -- -- 39
2019-08-17 16:00:00 32.4 15 Sudeste 28 Sudeste 0 -- -- 44
2019-08-17 15:00:00 31.9 15 Sudeste 29 Sudeste 0 -- -- 45
2019-08-17 14:00:00 31.8 16 Sudeste 24 Sudeste 0 -- -- 42
2019-08-17 13:00:00 31.2 10 Sudeste 21 Sur 0 -- -- 48
2019-08-17 12:00:00 28.5 5 Sudoeste 13 Oeste 0 -- -- 60
2019-08-17 11:00:00 26.1 5 Sudoeste 10 Sur 0 -- -- 62
2019-08-17 10:00:00 23.4 0 Calma 3 Oeste 0 -- -- 64
2019-08-17 09:00:00 19.6 0 Calma 4 Nordeste 0 -- -- 77
2019-08-17 08:00:00 14.8 0 Calma 4 Nordeste 0 -- -- 91
2019-08-17 07:00:00 14.9 4 Nordeste 5 Nordeste 0 -- -- 90
2019-08-17 06:00:00 15.5 3 Nordeste 5 Nordeste 0 -- -- 89
2019-08-17 05:00:00 16.1 0 Calma 6 Nordeste 0 -- -- 88
2019-08-17 04:00:00 16.6 3 Nordeste 5 Nordeste 0 -- -- 87
2019-08-17 03:00:00 17.4 4 Nordeste 6 Nordeste 0 -- -- 85
2019-08-17 02:00:00 18.4 2 Nordeste 7 Este 0 -- -- 82
2019-08-17 01:00:00 19.5 3 Nordeste 6 Nordeste 0 -- -- 79
2019-08-17 00:00:00 20.9 2 Nordeste 6 Norte 0 -- -- 75
2019-08-16 23:00:00 22.1 5 Nordeste 8 Nordeste 0 -- -- 72
2019-08-16 22:00:00 24.9 5 Sudeste 7 Sudeste 0 -- -- 66
2019-08-16 21:00:00 27.4 5 Sur 14 Sudeste 0 -- -- 58
2019-08-16 20:00:00 28.9 9 Sudeste 18 Sudoeste 0 -- -- 50
2019-08-16 19:00:00 30.4 11 Sur 23 Sur 0 -- -- 50
2019-08-16 18:00:00 31 13 Sudeste 29 Sur 0 -- -- 44
2019-08-16 17:00:00 31.1 14 Sudeste 31 Sudeste 0 -- -- 46
2019-08-16 16:00:00 31.9 14 Sur 38 Sudeste 0 -- -- 41
2019-08-16 15:00:00 32.2 15 Sudeste 30 Sur 0 -- -- 40
2019-08-16 14:00:00 31.7 18 Este 35 Sudeste 0 -- -- 37
2019-08-16 13:00:00 31.8 13 Sudeste 26 Sudeste 0 -- -- 40
2019-08-16 12:00:00 30.7 12 Sudeste 20 Sudeste 0 -- -- 43
2019-08-16 11:00:00 28.7 5 Oeste 8 Sur 0 -- -- 51
2019-08-16 10:00:00 24.2 2 Noroeste 4 Noroeste 0 -- -- 60
2019-08-16 09:00:00 21.2 0 Calma 3 Este 0 -- -- 70
2019-08-16 08:00:00 15.8 0 Calma 6 Nordeste 0 -- -- 88
2019-08-16 07:00:00 15.9 3 Este 6 Este 0 -- -- 87
2019-08-16 06:00:00 16.7 0 Calma 6 Norte 0 -- -- 85
2019-08-16 05:00:00 17 4 Nordeste 6 Nordeste 0 -- -- 84
2019-08-16 04:00:00 17.7 0 Calma 8 Nordeste 0 -- -- 83
2019-08-16 03:00:00 18.3 3 Este 6 Nordeste 0 -- -- 81
2019-08-16 02:00:00 19.1 4 Nordeste 6 Nordeste 0 -- -- 78
2019-08-16 01:00:00 20.2 4 Este 8 Este 0 -- -- 75
2019-08-16 00:00:00 21.2 3 Nordeste 6 Este 0 -- -- 73
2019-08-15 23:00:00 22.6 5 Nordeste 7 Nordeste 0 -- -- 70
2019-08-15 22:00:00 25.3 3 Este 10 Sur 0 -- -- 63
2019-08-15 21:00:00 27.6 6 Sur 13 Sudoeste 0 -- -- 54
2019-08-15 20:00:00 29.7 7 Sur 23 Sudeste 0 -- -- 48
2019-08-15 19:00:00 30.2 14 Sudeste 28 Sudeste 0 -- -- 51
2019-08-15 18:00:00 31.7 14 Sudeste 29 Sudeste 0 -- -- 46
2019-08-15 17:00:00 32 14 Sudeste 29 Sudeste 0 -- -- 46
2019-08-15 16:00:00 32.4 14 Sudeste 33 Sudeste 0 -- -- 45
2019-08-15 15:00:00 31.8 15 Sudeste 31 Sudeste 0 -- -- 49
2019-08-15 14:00:00 31.6 12 Sudeste 25 Sur 0 -- -- 52
2019-08-15 13:00:00 30.5 13 Sudeste 23 Sudeste 0 -- -- 55
2019-08-15 12:00:00 28.8 10 Sudeste 19 Sudeste 0 -- -- 63
2019-08-15 11:00:00 27.3 4 Sudoeste 9 Sudoeste 0 -- -- 65
2019-08-15 10:00:00 24.8 4 Oeste 7 Oeste 0 -- -- 71
2019-08-15 09:00:00 21.7 0 Calma 4 Este 0 -- -- 81
2019-08-15 08:00:00 16.8 3 Este 4 Este 0 -- -- 94
2019-08-15 07:00:00 17 0 Calma 6 Nordeste 0 -- -- 94
2019-08-15 06:00:00 17.5 4 Este 5 Nordeste 0 -- -- 93
2019-08-15 05:00:00 18.3 3 Nordeste 6 Nordeste 0 -- -- 93
2019-08-15 04:00:00 18.7 0 Calma 6 Nordeste 0 -- -- 91
2019-08-15 03:00:00 19.5 3 Este 5 Nordeste 0 -- -- 90
2019-08-15 02:00:00 20.1 3 Nordeste 7 Nordeste 0 -- -- 88
2019-08-15 01:00:00 21 3 Nordeste 8 Nordeste 0 -- -- 86
2019-08-15 00:00:00 22.1 3 Nordeste 6 Este 0 -- -- 83
2019-08-14 23:00:00 23.7 2 Sur 8 Sur 0 -- -- 81
2019-08-14 22:00:00 24.7 5 Sur 14 Sudeste 0 -- -- 76
2019-08-14 21:00:00 26.1 9 Sudeste 15 Sur 0 -- -- 69
2019-08-14 20:00:00 27.9 6 Sudeste 22 Sur 0 -- -- 63
2019-08-14 19:00:00 28.8 13 Sudeste 26 Sudeste 0 -- -- 61
2019-08-14 18:00:00 29.9 12 Sur 31 Este 0 -- -- 59
2019-08-14 17:00:00 29.9 14 Sudeste 33 Sur 0 -- -- 59
2019-08-14 16:00:00 30.1 17 Sudeste 44 Este 0 -- -- 59
2019-08-14 15:00:00 29.9 21 Sudeste 43 Sudeste 0 -- -- 60
2019-08-14 14:00:00 29.5 22 Sudeste 42 Sudeste 0 -- -- 60
2019-08-14 13:00:00 29 22 Sudeste 42 Sudeste 0 -- -- 63
2019-08-14 12:00:00 28.7 19 Sudeste 37 Sudeste 0 -- -- 65
2019-08-14 11:00:00 28.1 17 Sudeste 33 Sudeste 0 -- -- 70
2019-08-14 10:00:00 27.4 10 Este 27 Sudeste 0 -- -- 74
2019-08-14 09:00:00 25.1 6 Sudeste 16 Sudeste 0 -- -- 86
2019-08-14 08:00:00 24 10 Sudeste 19 Sudeste 0 -- -- 91
2019-08-14 07:00:00 24.4 6 Sudeste 21 Este 0 -- -- 88
2019-08-14 06:00:00 24.2 8 Sudeste 18 Sudeste 0 -- -- 87
2019-08-14 05:00:00 24.2 6 Este 19 Este 0 -- -- 88
2019-08-14 04:00:00 21.4 5 Noroeste 16 Sudeste 0 -- -- 90
2019-08-14 03:00:00 20.9 3 Nordeste 6 Nordeste 0 -- -- 90
2019-08-14 02:00:00 21.7 4 Nordeste 8 Nordeste 0 -- -- 89
2019-08-14 01:00:00 22.4 4 Nordeste 7 Nordeste 0 -- -- 88
2019-08-14 00:00:00 22.9 4 Este 6 Nordeste 0 -- -- 87
2019-08-13 23:00:00 24.2 2 Norte 12 Sur 0 -- -- 83
2019-08-13 22:00:00 24.8 5 Sur 18 Sur 0 -- -- 81
2019-08-13 21:00:00 25.8 8 Sur 28 Sur 0 -- -- 78
2019-08-13 20:00:00 27.4 18 Sudeste 31 Sudeste 0 -- -- 71
2019-08-13 19:00:00 29 16 Sudeste 36 Sudeste 0 -- -- 64
2019-08-13 18:00:00 29.8 21 Sudeste 40 Sudeste 0 -- -- 60
2019-08-13 17:00:00 30.8 17 Sudeste 40 Sudeste 0 -- -- 58
2019-08-13 16:00:00 31.7 17 Sudeste 33 Sudeste 0 -- -- 51
2019-08-13 15:00:00 31.3 16 Sudeste 35 Sudeste 0 -- -- 52
2019-08-13 14:00:00 30.9 17 Sudeste 39 Sudeste 0 -- -- 55
2019-08-13 13:00:00 30.4 17 Sudeste 37 Sudeste 0 -- -- 58
2019-08-13 12:00:00 28.4 15 Sudeste 31 Sudeste 0 -- -- 67
2019-08-13 11:00:00 28.1 11 Sur 30 Sudeste 0 -- -- 61
2019-08-13 10:00:00 23.8 3 Norte 5 Noroeste 0 -- -- 39
2019-08-13 09:00:00 19.1 3 Norte 7 Este 0 -- -- 47
2019-08-13 08:00:00 13.1 3 Nordeste 7 Nordeste 0 -- -- 61
2019-08-13 07:00:00 13.4 3 Nordeste 7 Nordeste 0 -- -- 59
2019-08-13 06:00:00 13.8 6 Nordeste 9 Nordeste 0 -- -- 59
2019-08-13 05:00:00 14.8 3 Nordeste 8 Este 0 -- -- 57
2019-08-13 04:00:00 16.4 3 Nordeste 7 Este 0 -- -- 53
2019-08-13 03:00:00 17.6 2 Sudeste 8 Este 0 -- -- 49
2019-08-13 02:00:00 18.5 5 Este 8 Este 0 -- -- 46
2019-08-13 01:00:00 21 3 Sur 12 Este 0 -- -- 42
2019-08-13 00:00:00 21.3 4 Este 9 Oeste 0 -- -- 41
2019-08-12 23:00:00 25.6 5 Noroeste 12 Noroeste 0 -- -- 34
2019-08-12 22:00:00 26.8 4 Norte 15 Noroeste 0 -- -- 28
2019-08-12 21:00:00 31.2 3 Noroeste 18 Noroeste 0 -- -- 21
2019-08-12 20:00:00 33.5 13 Noroeste 32 Noroeste 0 -- -- 17
2019-08-12 19:00:00 35.1 17 Noroeste 34 Oeste 0 -- -- 17
2019-08-12 18:00:00 36 17 Noroeste 36 Oeste 0 -- -- 17
2019-08-12 17:00:00 36.2 18 Oeste 30 Oeste 0 -- -- 19
2019-08-12 16:00:00 36.6 8 Noroeste 24 Oeste 0 -- -- 20
2019-08-12 15:00:00 35.4 13 Oeste 22 Oeste 0 -- -- 21
2019-08-12 14:00:00 33 12 Noroeste 26 Norte 0 -- -- 22
2019-08-12 13:00:00 31.6 8 Noroeste 23 Noroeste 0 -- -- 24
2019-08-12 12:00:00 29.3 18 Norte 37 Norte 0 -- -- 25
2019-08-12 11:00:00 28.7 17 Norte 31 Norte 0 -- -- 26
2019-08-12 10:00:00 27 14 Noroeste 25 Noroeste 0 -- -- 32
2019-08-12 09:00:00 21.4 2 Noroeste 8 Este 0 -- -- 47
2019-08-12 08:00:00 15.4 5 Sudeste 10 Este 0 -- -- 59
2019-08-12 07:00:00 15.2 6 Este 10 Este 0 -- -- 59
2019-08-12 06:00:00 16 4 Este 8 Este 0 -- -- 58
2019-08-12 05:00:00 17.7 5 Este 9 Nordeste 0 -- -- 52
2019-08-12 04:00:00 20.2 2 Norte 15 Noroeste 0 -- -- 49
2019-08-12 03:00:00 23.3 8 Noroeste 24 Noroeste 0 -- -- 43
2019-08-12 02:00:00 22.3 8 Oeste 15 Noroeste 0 -- -- 47
2019-08-12 01:00:00 24.1 2 Sur 16 Noroeste 0 -- -- 40
2019-08-12 00:00:00 25.3 8 Noroeste 19 Noroeste 0 -- -- 37
2019-08-11 23:00:00 25.4 4 Noroeste 17 Oeste 0 -- -- 38
2019-08-11 22:00:00 26.3 6 Noroeste 24 Noroeste 0 -- -- 36
2019-08-11 21:00:00 28.4 10 Norte 32 Noroeste 0 -- -- 34
2019-08-11 20:00:00 32.1 15 Noroeste 31 Oeste 0 -- -- 25
2019-08-11 19:00:00 32.6 20 Noroeste 39 Noroeste 0 -- -- 23
2019-08-11 18:00:00 33.8 21 Noroeste 40 Noroeste 0 -- -- 23
2019-08-11 17:00:00 34.6 19 Noroeste 46 Noroeste 0 -- -- 22
2019-08-11 16:00:00 35 17 Noroeste 40 Noroeste 0 -- -- 19
2019-08-11 15:00:00 34.8 14 Noroeste 41 Noroeste 0 -- -- 22
2019-08-11 14:00:00 33.3 21 Noroeste 39 Noroeste 0 -- -- 27
2019-08-11 13:00:00 32.1 23 Noroeste 41 Noroeste 0 -- -- 26
2019-08-11 12:00:00 30.7 21 Oeste 34 Oeste 0 -- -- 36
2019-08-11 11:00:00 29.9 15 Oeste 24 Oeste 0 -- -- 38
2019-08-11 10:00:00 27.9 15 Oeste 24 Oeste 0 -- -- 41
2019-08-11 09:00:00 25.2 4 Oeste 13 Oeste 0 -- -- 48
2019-08-11 08:00:00 20.1 5 Nordeste 10 Oeste 0 -- -- 61
2019-08-11 07:00:00 21.5 7 Oeste 17 Oeste 0 -- -- 58
2019-08-11 06:00:00 20.9 4 Este 12 Oeste 0 -- -- 58
2019-08-11 05:00:00 22.9 5 Sur 14 Sudoeste 0 -- -- 53
2019-08-11 04:00:00 24.6 7 Sudoeste 23 Noroeste 0 -- -- 46
2019-08-11 03:00:00 25.9 10 Noroeste 24 Noroeste 0 -- -- 40
2019-08-11 02:00:00 24.8 6 Oeste 16 Oeste 0 -- -- 43
2019-08-11 01:00:00 25 11 Oeste 27 Oeste 0 -- -- 50
2019-08-11 00:00:00 25.4 19 Oeste 33 Oeste 0 -- -- 54
2019-08-10 23:00:00 27.2 11 Oeste 25 Oeste 0 -- -- 51
2019-08-10 22:00:00 28.8 13 Oeste 26 Oeste 0 -- -- 49
2019-08-10 21:00:00 31 17 Oeste 29 Noroeste 0 -- -- 46
2019-08-10 20:00:00 33.7 19 Oeste 32 Oeste 0 -- -- 42
2019-08-10 19:00:00 35.7 22 Oeste 35 Oeste 0 -- -- 40
2019-08-10 18:00:00 37.3 16 Oeste 30 Oeste 0 -- -- 38
2019-08-10 17:00:00 37.7 17 Noroeste 35 Noroeste 0 -- -- 35
2019-08-10 16:00:00 37.8 16 Noroeste 32 Oeste 0 -- -- 34
2019-08-10 15:00:00 37.3 16 Noroeste 29 Oeste 0 -- -- 35
2019-08-10 14:00:00 36.6 17 Oeste 33 Oeste 0 -- -- 37
2019-08-10 13:00:00 35.8 15 Oeste 30 Noroeste 0 -- -- 39
2019-08-10 12:00:00 33.9 15 Norte 29 Norte 0 -- -- 43
2019-08-10 11:00:00 32.4 12 Noroeste 24 Noroeste 0 -- -- 47
2019-08-10 10:00:00 30.4 6 Oeste 18 Oeste 0 -- -- 57
2019-08-10 09:00:00 27.6 11 Oeste 21 Noroeste 0 -- -- 64
2019-08-10 08:00:00 24.4 12 Oeste 21 Oeste 0 -- -- 74
2019-08-10 07:00:00 21.1 4 Este 8 Este 0 -- -- 84
2019-08-10 06:00:00 22.9 3 Nordeste 14 Oeste 0 -- -- 79
2019-08-10 05:00:00 23.4 3 Sudoeste 14 Oeste 0 -- -- 79
2019-08-10 04:00:00 24.2 7 Noroeste 25 Oeste 0 -- -- 78
2019-08-10 03:00:00 24.5 12 Oeste 26 Noroeste 0 -- -- 76
2019-08-10 02:00:00 24.7 13 Oeste 31 Oeste 0 -- -- 75
2019-08-10 01:00:00 25.4 16 Oeste 31 Oeste 0 -- -- 71
2019-08-10 00:00:00 25.6 5 Noroeste 25 Oeste 0 -- -- 69
2019-08-09 23:00:00 26.4 13 Oeste 27 Oeste 0 -- -- 67
2019-08-09 22:00:00 27.6 14 Oeste 28 Oeste 0 -- -- 62
2019-08-09 21:00:00 30 14 Oeste 27 Noroeste 0 -- -- 51
2019-08-09 20:00:00 32.3 17 Noroeste 40 Noroeste 0 -- -- 42
2019-08-09 19:00:00 34.6 15 Noroeste 37 Noroeste 0 -- -- 36
2019-08-09 18:00:00 35.7 20 Oeste 37 Noroeste 0 -- -- 35
2019-08-09 17:00:00 36.3 18 Noroeste 37 Noroeste 0 -- -- 32
2019-08-09 16:00:00 36.1 19 Oeste 40 Oeste 0 -- -- 33
2019-08-09 15:00:00 36 22 Oeste 40 Oeste 0 -- -- 33
2019-08-09 14:00:00 35.4 18 Oeste 41 Oeste 0 -- -- 34
2019-08-09 13:00:00 33.9 21 Oeste 40 Oeste 0 -- -- 36
2019-08-09 12:00:00 33.4 11 Noroeste 34 Noroeste 0 -- -- 37
2019-08-09 11:00:00 31.5 10 Noroeste 23 Noroeste 0 -- -- 44
2019-08-09 10:00:00 27.8 0 Calma 7 Noroeste 0 -- -- 55
2019-08-09 09:00:00 21.8 3 Este 9 Nordeste 0 -- -- 60
2019-08-09 08:00:00 16.6 6 Nordeste 12 Este 0 -- -- 74
2019-08-09 07:00:00 17.2 2 Norte 10 Nordeste 0 -- -- 73
2019-08-09 06:00:00 17.3 5 Este 11 Nordeste 0 -- -- 70
2019-08-09 05:00:00 17.9 8 Este 10 Este 0 -- -- 70
2019-08-09 04:00:00 19.6 5 Este 9 Oeste 0 -- -- 64
2019-08-09 03:00:00 20.7 3 Este 15 Oeste 0 -- -- 60
2019-08-09 02:00:00 24.1 12 Oeste 21 Oeste 0 -- -- 52
2019-08-09 01:00:00 24.4 2 Noroeste 31 Oeste 0 -- -- 55
2019-08-09 00:00:00 26.4 15 Oeste 27 Oeste 0 -- -- 49
2019-08-08 23:00:00 27.7 10 Oeste 32 Oeste 0 -- -- 46
2019-08-08 22:00:00 29.4 14 Oeste 26 Noroeste 0 -- -- 43
2019-08-08 21:00:00 32.2 12 Oeste 24 Noroeste 0 -- -- 39
2019-08-08 20:00:00 35 15 Oeste 27 Oeste 0 -- -- 36
2019-08-08 19:00:00 37.6 12 Noroeste 26 Oeste 0 -- -- 29
2019-08-08 18:00:00 38.1 17 Sudoeste 26 Oeste 0 -- -- 31
2019-08-08 17:00:00 38.6 14 Oeste 30 Oeste 0 -- -- 27
2019-08-08 16:00:00 38.6 14 Sudoeste 28 Sudoeste 0 -- -- 26
2019-08-08 15:00:00 38.5 10 Oeste 24 Sudoeste 0 -- -- 24
2019-08-08 14:00:00 37.4 16 Sudoeste 25 Oeste 0 -- -- 28
2019-08-08 13:00:00 37.2 8 Sudoeste 17 Sudoeste 0 -- -- 26
2019-08-08 12:00:00 36.3 4 Oeste 15 Oeste 0 -- -- 27
2019-08-08 11:00:00 34.6 3 Oeste 10 Oeste 0 -- -- 32
2019-08-08 10:00:00 30.4 2 Sur 5 Sur 0 -- -- 44
2019-08-08 09:00:00 23.2 3 Este 8 Nordeste 0 -- -- 63
2019-08-08 08:00:00 18.3 7 Este 9 Este 0 -- -- 76
2019-08-08 07:00:00 18.6 3 Nordeste 8 Este 0 -- -- 75
2019-08-08 06:00:00 20 5 Sudoeste 9 Oeste 0 -- -- 70
2019-08-08 05:00:00 20.5 2 Nordeste 14 Noroeste 0 -- -- 68
2019-08-08 04:00:00 21 3 Sudeste 7 Norte 0 -- -- 67
2019-08-08 03:00:00 22.7 5 Este 11 Nordeste 0 -- -- 63
2019-08-08 02:00:00 25 5 Oeste 19 Oeste 0 -- -- 57
2019-08-08 01:00:00 25.7 3 Oeste 14 Oeste 0 -- -- 55
2019-08-08 00:00:00 26.5 4 Oeste 15 Oeste 0 -- -- 51
2019-08-07 23:00:00 27.9 10 Noroeste 25 Oeste 0 -- -- 50
2019-08-07 22:00:00 29.6 8 Oeste 22 Noroeste 0 -- -- 43
2019-08-07 21:00:00 31.6 14 Noroeste 28 Oeste 0 -- -- 39
2019-08-07 20:00:00 33.6 14 Noroeste 33 Noroeste 0 -- -- 37
2019-08-07 19:00:00 35.6 18 Noroeste 31 Noroeste 0 -- -- 34
2019-08-07 18:00:00 36.1 21 Noroeste 36 Noroeste 0 -- -- 33
2019-08-07 17:00:00 37.6 19 Oeste 33 Oeste 0 -- -- 26
2019-08-07 16:00:00 37.4 20 Oeste 36 Oeste 0 -- -- 26
2019-08-07 15:00:00 37 21 Oeste 35 Oeste 0 -- -- 28
2019-08-07 14:00:00 36.9 21 Oeste 36 Oeste 0 -- -- 26
2019-08-07 13:00:00 34.1 18 Oeste 33 Oeste 0 -- -- 39
2019-08-07 12:00:00 32.1 18 Oeste 29 Oeste 0 -- -- 46
2019-08-07 11:00:00 29.5 13 Oeste 25 Oeste 0 -- -- 51
2019-08-07 10:00:00 28 7 Sudoeste 14 Sudoeste 0 -- -- 53
2019-08-07 09:00:00 20.6 4 Sudeste 13 Nordeste 0 -- -- 57
2019-08-07 08:00:00 16.2 6 Nordeste 12 Nordeste 0 -- -- 67
2019-08-07 07:00:00 15.9 8 Nordeste 12 Nordeste 0 -- -- 68
2019-08-07 06:00:00 16.4 5 Este 10 Este 0 -- -- 65
2019-08-07 05:00:00 16.8 5 Este 12 Nordeste 0 -- -- 64
2019-08-07 04:00:00 17.5 6 Nordeste 11 Nordeste 0 -- -- 61
2019-08-07 03:00:00 18 6 Nordeste 12 Nordeste 0 -- -- 63
2019-08-07 02:00:00 19.1 5 Este 10 Este 0 -- -- 63
2019-08-07 01:00:00 20.9 2 Sur 6 Noroeste 0 -- -- 60
2019-08-07 00:00:00 23.9 2 Este 14 Noroeste 0 -- -- 52
2019-08-06 23:00:00 27.8 11 Oeste 23 Oeste 0 -- -- 44
2019-08-06 22:00:00 29.5 12 Oeste 27 Oeste 0 -- -- 37
2019-08-06 21:00:00 32.1 14 Oeste 26 Oeste 0 -- -- 35
2019-08-06 20:00:00 34.7 17 Oeste 30 Oeste 0 -- -- 32
2019-08-06 19:00:00 36.9 17 Oeste 31 Oeste 0 -- -- 27
2019-08-06 18:00:00 38 18 Oeste 31 Sudoeste 0 -- -- 27
2019-08-06 17:00:00 40.4 13 Oeste 23 Oeste 0 -- -- 21
2019-08-06 16:00:00 40.8 4 Sur 18 Sudeste 0 -- -- 20
2019-08-06 15:00:00 39.6 6 Este 18 Sudeste 0 -- -- 19
2019-08-06 14:00:00 38.2 7 Sudoeste 16 Sudoeste 0 -- -- 20
2019-08-06 13:00:00 37.1 6 Sudoeste 15 Sur 0 -- -- 23
2019-08-06 12:00:00 34.2 5 Sudoeste 10 Sudoeste 0 -- -- 31
2019-08-06 11:00:00 30.5 2 Noroeste 5 Noroeste 0 -- -- 40
2019-08-06 10:00:00 26.4 2 Sudeste 4 Este 0 -- -- 46
2019-08-06 09:00:00 20.9 0 Calma 6 Este 0 -- -- 63
2019-08-06 08:00:00 16.1 0 Calma 10 Sur 0 -- -- 77
2019-08-06 07:00:00 15.5 3 Este 8 Nordeste 0 -- -- 78
2019-08-06 06:00:00 16.5 2 Nordeste 10 Nordeste 0 -- -- 75
2019-08-06 05:00:00 17.6 3 Norte 9 Nordeste 0 -- -- 72
2019-08-06 04:00:00 18.6 5 Nordeste 10 Nordeste 0 -- -- 69
2019-08-06 03:00:00 19.8 5 Este 10 Nordeste 0 -- -- 65
2019-08-06 02:00:00 20.7 5 Nordeste 10 Nordeste 0 -- -- 63
2019-08-06 01:00:00 22.3 5 Este 8 Oeste 0 -- -- 59
2019-08-06 00:00:00 25.9 4 Oeste 9 Noroeste 0 -- -- 48
2019-08-05 23:00:00 27.4 3 Este 23 Oeste 0 -- -- 45
2019-08-05 22:00:00 29.2 10 Oeste 22 Noroeste 0 -- -- 41
2019-08-05 21:00:00 31.9 9 Oeste 24 Oeste 0 -- -- 36
2019-08-05 20:00:00 34.2 13 Oeste 26 Sudoeste 0 -- -- 34
2019-08-05 19:00:00 35.8 15 Oeste 23 Oeste 0 -- -- 37
2019-08-05 18:00:00 35.8 15 Sudeste 27 Sudeste 0 -- -- 37
2019-08-05 17:00:00 36.3 15 Sudeste 29 Sudeste 0 -- -- 36
2019-08-05 16:00:00 36.4 16 Sudeste 29 Este 0 -- -- 36
2019-08-05 15:00:00 35.9 17 Sudeste 37 Sudeste 0 -- -- 36
2019-08-05 14:00:00 38.6 8 Oeste 14 Oeste 0 -- -- 31
2019-08-05 13:00:00 36.8 6 Sur 13 Sudoeste 0 -- -- 30
2019-08-05 12:00:00 34.6 4 Sur 9 Sur 0 -- -- 36
2019-08-05 11:00:00 30.7 4 Oeste 6 Oeste 0 -- -- 43
2019-08-05 10:00:00 27.7 0 Calma 4 Sudeste 0 -- -- 50
2019-08-05 09:00:00 23.6 0 Calma 4 Este 0 -- -- 65
2019-08-05 08:00:00 18.3 0 Calma 4 Este 0 -- -- 80
2019-08-05 07:00:00 18.4 2 Este 7 Nordeste 0 -- -- 81
2019-08-05 06:00:00 19.1 2 Este 5 Nordeste 0 -- -- 79
2019-08-05 05:00:00 19.8 3 Norte 8 Nordeste 0 -- -- 77
2019-08-05 04:00:00 20.6 2 Este 7 Nordeste 0 -- -- 74
2019-08-05 03:00:00 21.2 3 Nordeste 9 Este 0 -- -- 72
2019-08-05 02:00:00 22.1 5 Sudeste 9 Este 0 -- -- 69
2019-08-05 01:00:00 22.8 6 Este 8 Este 0 -- -- 67
2019-08-05 00:00:00 24.5 4 Este 8 Nordeste 0 -- -- 61
2019-08-04 23:00:00 27.4 4 Sudoeste 13 Oeste 0 -- -- 53
2019-08-04 22:00:00 29.8 8 Oeste 19 Oeste 0 -- -- 47
2019-08-04 21:00:00 32.2 9 Noroeste 28 Oeste 0 -- -- 43
2019-08-04 20:00:00 34.5 15 Oeste 25 Oeste 0 -- -- 40
2019-08-04 19:00:00 36.3 12 Oeste 25 Sudoeste 0 -- -- 38
2019-08-04 18:00:00 36.9 17 Oeste 31 Oeste 0 -- -- 36
2019-08-04 17:00:00 37.7 15 Oeste 25 Oeste 0 -- -- 34
2019-08-04 16:00:00 38.5 12 Oeste 22 Oeste 0 -- -- 32
2019-08-04 15:00:00 37.8 10 Oeste 20 Sudoeste 0 -- -- 34
2019-08-04 14:00:00 36.6 15 Oeste 24 Oeste 0 -- -- 34
2019-08-04 13:00:00 36.1 8 Sudoeste 18 Sudeste 0 -- -- 35
2019-08-04 12:00:00 34 7 Oeste 14 Oeste 0 -- -- 34
2019-08-04 11:00:00 31 2 Norte 4 Noroeste 0 -- -- 40
2019-08-04 10:00:00 27.2 0 Calma 3 Sudeste 0 -- -- 48
2019-08-04 09:00:00 22 0 Calma 6 Nordeste 0 -- -- 69
2019-08-04 08:00:00 17.6 3 Nordeste 8 Nordeste 0 -- -- 82
2019-08-04 07:00:00 17.5 4 Nordeste 6 Nordeste 0 -- -- 84
2019-08-04 06:00:00 18 3 Nordeste 7 Nordeste 0 -- -- 84
2019-08-04 05:00:00 18.8 0 Calma 4 Nordeste 0 -- -- 83
2019-08-04 04:00:00 19.4 0 Calma 4 Nordeste 0 -- -- 81
2019-08-04 03:00:00 20.5 0 Calma 10 Noroeste 0 -- -- 80
2019-08-04 02:00:00 20.9 0 Calma 7 Nordeste 0 -- -- 76
2019-08-04 01:00:00 21.4 5 Este 8 Nordeste 0 -- -- 73
2019-08-04 00:00:00 22.6 3 Nordeste 6 Nordeste 0 -- -- 70
2019-08-03 23:00:00 23.5 3 Este 5 Nordeste 0 -- -- 66
2019-08-03 22:00:00 26.1 0 Calma 8 Sudeste 0 -- -- 59
2019-08-03 21:00:00 28.2 5 Sudeste 18 Este 0 -- -- 52
2019-08-03 20:00:00 30.2 10 Sudeste 22 Sudeste 0 -- -- 46
2019-08-03 19:00:00 31.7 11 Sudeste 25 Sudeste 0 -- -- 44
2019-08-03 18:00:00 32.5 13 Sudeste 30 Este 0 -- -- 41
2019-08-03 17:00:00 33.2 12 Sudeste 25 Este 0 -- -- 41
2019-08-03 16:00:00 32.9 15 Sudeste 26 Sudeste 0 -- -- 43
2019-08-03 15:00:00 33.4 10 Sur 19 Sur 0 -- -- 44
2019-08-03 14:00:00 31.4 9 Sur 26 Sudeste 0 -- -- 49
2019-08-03 13:00:00 30 13 Sudeste 26 Sudeste 0 -- -- 51
2019-08-03 12:00:00 29.7 12 Sur 28 Sudeste 0 -- -- 49
2019-08-03 11:00:00 28.6 10 Sudeste 20 Sudeste 0 -- -- 51
2019-08-03 10:00:00 26.3 4 Sur 6 Sur 0 -- -- 52
2019-08-03 09:00:00 23 0 Calma 3 Sur 0 -- -- 59
2019-08-03 08:00:00 17.4 2 Norte 4 Este 0 -- -- 83
2019-08-03 07:00:00 17.1 2 Este 6 Este 0 -- -- 82
2019-08-03 06:00:00 17.6 4 Nordeste 6 Norte 0 -- -- 81
2019-08-03 05:00:00 18 3 Norte 6 Nordeste 0 -- -- 80
2019-08-03 04:00:00 18.7 2 Nordeste 5 Nordeste 0 -- -- 77
2019-08-03 03:00:00 19.7 4 Este 6 Sur 0 -- -- 74
2019-08-03 02:00:00 20.9 5 Nordeste 7 Nordeste 0 -- -- 72
2019-08-03 01:00:00 22.4 3 Noroeste 18 Sudeste 0 -- -- 70
2019-08-03 00:00:00 24.6 8 Sudeste 18 Sudeste 0 -- -- 59
2019-08-02 23:00:00 24.3 6 Este 9 Este 0 -- -- 50
2019-08-02 22:00:00 28.2 5 Este 20 Oeste 0 -- -- 37
2019-08-02 21:00:00 31.8 8 Oeste 22 Oeste 0 -- -- 30
2019-08-02 20:00:00 34.2 11 Oeste 18 Oeste 0 -- -- 31
2019-08-02 19:00:00 35 8 Sudeste 21 Sur 0 -- -- 38
2019-08-02 18:00:00 34.9 14 Sudeste 27 Sudeste 0 -- -- 38
2019-08-02 17:00:00 36.8 11 Sudeste 26 Sudeste 0 -- -- 35
2019-08-02 16:00:00 37.2 15 Sudeste 33 Sudeste 0 -- -- 33
2019-08-02 15:00:00 38 10 Sur 27 Sudoeste 0 -- -- 32
2019-08-02 14:00:00 37.4 16 Oeste 32 Oeste 0 -- -- 31
2019-08-02 13:00:00 36.4 16 Oeste 28 Oeste 0 -- -- 30
2019-08-02 12:00:00 35.2 2 Oeste 6 Sur 0 -- -- 33
2019-08-02 11:00:00 30.4 2 Noroeste 5 Oeste 0 -- -- 43
2019-08-02 10:00:00 26.9 2 Sudeste 5 Este 0 -- -- 52
2019-08-02 09:00:00 23.3 0 Calma 5 Nordeste 0 -- -- 67
2019-08-02 08:00:00 17.4 2 Norte 7 Nordeste 0 -- -- 91
2019-08-02 07:00:00 17.5 2 Este 4 Nordeste 0 -- -- 91
2019-08-02 06:00:00 18.2 3 Nordeste 4 Este 0 -- -- 90
2019-08-02 05:00:00 18.8 3 Nordeste 7 Nordeste 0 -- -- 89
2019-08-02 04:00:00 19.5 0 Calma 6 Noroeste 0 -- -- 89
2019-08-02 03:00:00 20.5 0 Calma 10 Norte 0 -- -- 87
2019-08-02 02:00:00 21.3 2 Este 9 Nordeste 0 -- -- 83
2019-08-02 01:00:00 22.2 4 Sudeste 10 Nordeste 0 -- -- 82
2019-08-02 00:00:00 23.1 4 Nordeste 7 Nordeste 0 -- -- 79
2019-08-01 23:00:00 24.5 3 Nordeste 6 Sur 0 -- -- 75
2019-08-01 22:00:00 27 0 Calma 13 Sudeste 0 -- -- 67
2019-08-01 21:00:00 28.9 8 Sudeste 14 Sudeste 0 -- -- 61
2019-08-01 20:00:00 30.4 6 Sudeste 19 Este 0 -- -- 57
2019-08-01 19:00:00 30.5 13 Sudeste 23 Sudeste 0 -- -- 57
2019-08-01 18:00:00 31.8 11 Sudeste 22 Sudeste 0 -- -- 53
2019-08-01 17:00:00 31.4 12 Sudeste 26 Sudeste 0 -- -- 54
2019-08-01 16:00:00 31.3 14 Sudeste 26 Sudeste 0 -- -- 55
2019-08-01 15:00:00 32.2 12 Sur 26 Sur 0 -- -- 53
2019-08-01 14:00:00 31.1 9 Sur 26 Sur 0 -- -- 56
2019-08-01 13:00:00 29.7 15 Sudeste 27 Sudeste 0 -- -- 58
2019-08-01 12:00:00 28 9 Sudeste 24 Sudeste 0 -- -- 63
2019-08-01 11:00:00 26.4 10 Sudeste 21 Este 0 -- -- 69
2019-08-01 10:00:00 25.8 9 Sudeste 24 Este 0 -- -- 72
2019-08-01 09:00:00 25.8 11 Este 26 Este 0 -- -- 72
2019-08-01 08:00:00 24.9 14 Este 33 Sudeste 0 -- -- 75
2019-08-01 07:00:00 24.8 13 Este 25 Este 0 -- -- 76
2019-08-01 06:00:00 24.9 14 Este 25 Este 0 -- -- 76
2019-08-01 05:00:00 24.7 8 Sudeste 18 Este 0 -- -- 76
2019-08-01 04:00:00 24.7 5 Sudeste 17 Sudeste 0 -- -- 76
2019-08-01 03:00:00 24.6 8 Sudeste 19 Sudeste 0 -- -- 76
2019-08-01 02:00:00 24.8 10 Sudeste 23 Sudeste 0 -- -- 75
2019-08-01 01:00:00 25.3 15 Sudeste 27 Este 0 -- -- 74
2019-08-01 00:00:00 25 10 Sudeste 30 Sudeste 0 -- -- 75
2019-07-31 23:00:00 25.2 15 Sudeste 28 Sudeste 0 -- -- 73
2019-07-31 22:00:00 25.5 13 Sudeste 33 Sudeste 0 -- -- 73
2019-07-31 21:00:00 26.1 13 Sudeste 35 Sudeste 0 -- -- 70
2019-07-31 20:00:00 27.7 15 Sudeste 34 Sudeste 0 -- -- 66
2019-07-31 19:00:00 28.7 17 Sudeste 40 Este 0 -- -- 62
2019-07-31 18:00:00 29.5 22 Sudeste 42 Sudeste 0 -- -- 58
2019-07-31 17:00:00 29.9 22 Sudeste 38 Este 0 -- -- 54
2019-07-31 16:00:00 29.5 22 Este 44 Este 0 -- -- 58
2019-07-31 15:00:00 28.6 28 Este 50 Este 0 -- -- 61
2019-07-31 14:00:00 29.8 24 Este 54 Sur 0 -- -- 58
2019-07-31 13:00:00 28.5 24 Este 51 Este 0 -- -- 62
2019-07-31 12:00:00 28.3 22 Este 47 Este 0 -- -- 62
2019-07-31 11:00:00 28.6 20 Este 45 Este 0 -- -- 56
2019-07-31 10:00:00 26.7 21 Sudeste 39 Este 0 -- -- 65
2019-07-31 09:00:00 23.9 0 Calma 7 Sudeste 0 -- -- 65
2019-07-31 08:00:00 19 0 Calma 6 Este 0 -- -- 82
2019-07-31 07:00:00 18.5 3 Nordeste 5 Nordeste 0 -- -- 83
2019-07-31 06:00:00 18.5 0 Calma 9 Nordeste 0 -- -- 77
2019-07-31 05:00:00 18.9 4 Nordeste 9 Este 0 -- -- 71
2019-07-31 04:00:00 19.8 4 Este 8 Nordeste 0 -- -- 65
2019-07-31 03:00:00 21.1 3 Nordeste 17 Sur 0 -- -- 63
2019-07-31 02:00:00 19.7 4 Sudeste 6 Sudeste 0 -- -- 63
2019-07-31 01:00:00 20.7 2 Nordeste 6 Este 0 -- -- 59
2019-07-31 00:00:00 21.6 3 Nordeste 8 Nordeste 0 -- -- 57
2019-07-30 23:00:00 23.8 3 Nordeste 6 Nordeste 0 -- -- 52
2019-07-30 22:00:00 26.1 5 Este 6 Este 0 -- -- 47
2019-07-30 21:00:00 30.3 3 Sudeste 15 Sudeste 0 -- -- 35
2019-07-30 20:00:00 32.1 9 Sur 24 Sudeste 0 -- -- 33
2019-07-30 19:00:00 33 13 Sudeste 27 Sudeste 0 -- -- 31
2019-07-30 18:00:00 34.2 16 Sudeste 29 Sudeste 0 -- -- 30
2019-07-30 17:00:00 35.4 18 Sudeste 32 Sudeste 0 -- -- 29
2019-07-30 16:00:00 35.7 19 Sudeste 33 Sudeste 0 -- -- 29
2019-07-30 15:00:00 36.9 16 Sudeste 28 Sudeste 0 -- -- 28
2019-07-30 14:00:00 37 11 Sur 24 Sudeste 0 -- -- 26
2019-07-30 13:00:00 36.7 6 Sur 15 Sudeste 0 -- -- 24
2019-07-30 12:00:00 34.7 4 Sudeste 9 Sudoeste 0 -- -- 30
2019-07-30 11:00:00 31.6 2 Noroeste 5 Oeste 0 -- -- 34
2019-07-30 10:00:00 29.3 3 Sudoeste 6 Sur 0 -- -- 41
2019-07-30 09:00:00 23.7 5 Este 10 Nordeste 0 -- -- 57
2019-07-30 08:00:00 16.9 7 Nordeste 10 Nordeste 0 -- -- 72
2019-07-30 07:00:00 16.9 8 Este 10 Nordeste 0 -- -- 71
2019-07-30 06:00:00 17.4 6 Este 10 Nordeste 0 -- -- 71
2019-07-30 05:00:00 18.2 7 Este 9 Nordeste 0 -- -- 70
2019-07-30 04:00:00 19.6 6 Este 9 Este 0 -- -- 66
2019-07-30 03:00:00 21.5 2 Nordeste 11 Noroeste 0 -- -- 62
2019-07-30 02:00:00 22 4 Sur 9 Sudoeste 0 -- -- 61
2019-07-30 01:00:00 25.4 3 Noroeste 15 Noroeste 0 -- -- 53
2019-07-30 00:00:00 26.9 6 Noroeste 22 Norte 0 -- -- 49
2019-07-29 23:00:00 27.3 9 Noroeste 19 Norte 0 -- -- 50
2019-07-29 22:00:00 28.7 5 Noroeste 30 Noroeste 0 -- -- 47
2019-07-29 21:00:00 31.2 12 Noroeste 32 Oeste 0 -- -- 40
2019-07-29 20:00:00 33.4 16 Noroeste 32 Oeste 0 -- -- 36
2019-07-29 19:00:00 34.3 16 Oeste 43 Oeste 0 -- -- 38
2019-07-29 18:00:00 34.4 19 Oeste 47 Oeste 0 -- -- 39
2019-07-29 17:00:00 34.3 21 Oeste 41 Sudoeste 0 -- -- 41
2019-07-29 16:00:00 34.7 23 Oeste 40 Sudoeste 0 -- -- 39
2019-07-29 15:00:00 33.9 22 Oeste 38 Oeste 0 -- -- 41
2019-07-29 14:00:00 33.4 17 Oeste 35 Sudoeste 0 -- -- 43
2019-07-29 13:00:00 31.2 14 Oeste 28 Oeste 0 -- -- 49
2019-07-29 12:00:00 28.5 17 Oeste 27 Oeste 0 -- -- 56
2019-07-29 11:00:00 26.8 15 Oeste 28 Oeste 0 -- -- 61
2019-07-29 10:00:00 25.5 14 Oeste 27 Oeste 0 -- -- 63
2019-07-29 09:00:00 23.7 4 Norte 14 Oeste 0 -- -- 65
2019-07-29 08:00:00 17.7 3 Este 11 Oeste 0 -- -- 86
2019-07-29 07:00:00 16.9 3 Oeste 10 Oeste 0 -- -- 87
2019-07-29 06:00:00 16.6 6 Este 9 Nordeste 0 -- -- 89
2019-07-29 05:00:00 17.8 3 Nordeste 9 Nordeste 0 -- -- 84
2019-07-29 04:00:00 20.4 4 Noroeste 22 Oeste 0 -- -- 76
2019-07-29 03:00:00 20.9 8 Oeste 24 Oeste 0 -- -- 76
2019-07-29 02:00:00 20.9 5 Oeste 13 Oeste 0 -- -- 76
2019-07-29 01:00:00 20.6 3 Este 6 Este 0 -- -- 74
2019-07-29 00:00:00 22.8 4 Oeste 26 Oeste 0 -- -- 68
2019-07-28 23:00:00 23.7 14 Oeste 28 Oeste 0 -- -- 65
2019-07-28 22:00:00 24.6 11 Oeste 26 Noroeste 0 -- -- 60
2019-07-28 21:00:00 26.9 11 Oeste 26 Oeste 0 -- -- 54
2019-07-28 20:00:00 28.6 15 Oeste 29 Oeste 0 -- -- 49
2019-07-28 19:00:00 29.9 17 Oeste 34 Oeste 0 -- -- 46
2019-07-28 18:00:00 30.9 22 Oeste 37 Sudoeste 0 -- -- 44
2019-07-28 17:00:00 31.9 18 Oeste 32 Oeste 0 -- -- 42
2019-07-28 16:00:00 32.3 15 Oeste 31 Oeste 0 -- -- 40
2019-07-28 15:00:00 31.8 15 Sudoeste 27 Sudoeste 0 -- -- 40
2019-07-28 14:00:00 30.9 15 Oeste 27 Oeste 0 -- -- 42
2019-07-28 13:00:00 29.8 15 Oeste 26 Sudoeste 0 -- -- 47
2019-07-28 12:00:00 28.4 13 Sudoeste 24 Sudoeste 0 -- -- 49
2019-07-28 11:00:00 27 11 Oeste 19 Oeste 0 -- -- 52
2019-07-28 10:00:00 25.3 10 Oeste 30 Oeste 0 -- -- 59
2019-07-28 09:00:00 24 3 Noroeste 9 Nordeste 0 -- -- 65
2019-07-28 08:00:00 18.8 4 Nordeste 13 Oeste 0 -- -- 84
2019-07-28 07:00:00 19.3 5 Norte 14 Oeste 0 -- -- 80
2019-07-28 06:00:00 19.6 5 Oeste 13 Oeste 0 -- -- 80
2019-07-28 05:00:00 20.4 5 Noroeste 12 Oeste 0 -- -- 79
2019-07-28 04:00:00 21.8 7 Oeste 15 Oeste 0 -- -- 75
2019-07-28 03:00:00 22 8 Oeste 17 Oeste 0 -- -- 76
2019-07-28 02:00:00 22.2 8 Oeste 22 Oeste 0 -- -- 75
2019-07-28 01:00:00 22.5 16 Oeste 24 Oeste 0 -- -- 74
2019-07-28 00:00:00 22.8 14 Oeste 27 Oeste 0 -- -- 76
2019-07-27 23:00:00 22.9 15 Oeste 26 Oeste 0 -- -- 76
2019-07-26 12:00:00 -- -- -- -- -- -- -- -- --
2019-07-26 11:00:00 27.4 15 Oeste 29 Oeste 0 -- -- 63
2019-07-26 10:00:00 25.6 15 Oeste 30 Oeste 0 -- -- 69
2019-07-26 09:00:00 24.9 9 Oeste 28 Oeste 0 -- -- 72
2019-07-26 08:00:00 18.7 4 Oeste 12 Noroeste 0 -- -- 89
2019-07-26 07:00:00 18.5 0 Calma 12 Oeste 0 -- -- 85
2019-07-26 06:00:00 19.8 5 Noroeste 14 Oeste 0 -- -- 82
2019-07-26 05:00:00 20.4 3 Norte 18 Oeste 0 -- -- 82
2019-07-26 04:00:00 21 3 Norte 18 Noroeste 0 -- -- 78
2019-07-26 03:00:00 22.2 7 Noroeste 23 Noroeste 0 -- -- 77
2019-07-26 02:00:00 22.4 6 Sudoeste 13 Oeste 0 -- -- 80
2019-07-26 01:00:00 22.8 2 Sur 13 Oeste 0 -- -- 76
2019-07-26 00:00:00 24.1 5 Oeste 12 Sudoeste 0 -- -- 72
2019-07-25 23:00:00 25.4 5 Oeste 14 Oeste 0 -- -- 68
2019-07-25 22:00:00 27.5 9 Oeste 31 Oeste 0 -- -- 61
2019-07-25 21:00:00 30.6 14 Oeste 24 Oeste 0 -- -- 49
2019-07-25 20:00:00 33.5 13 Oeste 20 Oeste 0 -- -- 37
2019-07-25 19:00:00 33.9 9 Sur 23 Sudeste 0 -- -- 41
2019-07-25 18:00:00 33.7 13 Sudeste 29 Sudeste 0 -- -- 40
2019-07-25 17:00:00 34.1 17 Sudeste 28 Sudeste 0 -- -- 39
2019-07-25 16:00:00 34.4 14 Sudeste 26 Sur 0 -- -- 38
2019-07-25 15:00:00 33.6 10 Sur 29 Sudeste 0 -- -- 44
2019-07-25 14:00:00 33.2 13 Sur 27 Sudeste 0 -- -- 43
2019-07-25 13:00:00 32.7 9 Sur 24 Este 0 -- -- 45
2019-07-25 12:00:00 31.7 6 Sur 14 Sur 0 -- -- 52
2019-07-25 11:00:00 28.9 3 Sudoeste 8 Noroeste 0 -- -- 60
2019-07-25 10:00:00 26.7 3 Oeste 5 Oeste 0 -- -- 59
2019-07-25 09:00:00 23.1 0 Calma 4 Este 0 -- -- 68
2019-07-25 08:00:00 17.2 0 Calma 5 Este 0 -- -- 89
2019-07-25 07:00:00 16.5 2 Nordeste 7 Nordeste 0 -- -- 89
2019-07-25 06:00:00 17.1 2 Nordeste 6 Nordeste 0 -- -- 87
2019-07-25 05:00:00 18 0 Calma 6 Nordeste 0 -- -- 84
2019-07-25 04:00:00 18.8 0 Calma 9 Sur 0 -- -- 82
2019-07-25 03:00:00 19 5 Este 7 Este 0 -- -- 80
2019-07-25 02:00:00 19.6 0 Calma 7 Este 0 -- -- 78
2019-07-25 01:00:00 20.2 3 Nordeste 5 Este 0 -- -- 76
2019-07-25 00:00:00 21.6 4 Nordeste 9 Norte 0 -- -- 72
2019-07-24 23:00:00 23.3 4 Nordeste 9 Nordeste 0 -- -- 67
2019-07-24 22:00:00 25.9 5 Sur 17 Sudeste 0 -- -- 64
2019-07-24 21:00:00 28.4 9 Sur 22 Sudeste 0 -- -- 53
2019-07-24 20:00:00 30.2 13 Sudeste 31 Sur 0 -- -- 44
2019-07-24 19:00:00 31.1 15 Sudeste 37 Sudeste 0 -- -- 44
2019-07-24 18:00:00 31.8 23 Sudeste 41 Sudeste 0 -- -- 40
2019-07-24 17:00:00 32.5 17 Sudeste 45 Sur 0 -- -- 42
2019-07-24 16:00:00 32.7 24 Sudeste 43 Sur 0 -- -- 39
2019-07-24 15:00:00 32.6 21 Sudeste 38 Sudeste 0 -- -- 39
2019-07-24 14:00:00 32.8 18 Sudeste 45 Sudeste 0 -- -- 42
2019-07-24 13:00:00 32.1 18 Sudeste 38 Sur 0 -- -- 45
2019-07-24 12:00:00 31.5 15 Sudeste 31 Sudeste 0 -- -- 48
2019-07-24 11:00:00 30.5 5 Sur 13 Sudoeste 0 -- -- 56
2019-07-24 10:00:00 27.7 4 Noroeste 8 Noroeste 0 -- -- 67
2019-07-24 09:00:00 24.8 0 Calma 3 Norte 0 -- -- 75
2019-07-24 08:00:00 19.4 0 Calma 4 Este 0 -- -- 94
2019-07-24 07:00:00 19.3 0 Calma 4 Este 0 -- -- 94
2019-07-24 06:00:00 19.3 0 Calma 5 Este 0 -- -- 93
2019-07-24 05:00:00 19.7 2 Este 4 Norte 0 -- -- 92
2019-07-24 04:00:00 20.1 0 Calma 7 Este 0 -- -- 93
2019-07-24 03:00:00 20.4 2 Nordeste 8 Este 0 -- -- 92
2019-07-24 02:00:00 21.1 2 Este 6 Nordeste 0 -- -- 90
2019-07-24 01:00:00 22 0 Calma 6 Este 0 -- -- 89
2019-07-24 00:00:00 22.8 4 Nordeste 6 Nordeste 0 -- -- 87
2019-07-23 23:00:00 24.2 3 Norte 13 Sudeste 0 -- -- 83
2019-07-23 22:00:00 25.1 6 Sudeste 21 Sudeste 0 -- -- 80
2019-07-23 21:00:00 26.8 9 Sudeste 22 Sudeste 0 -- -- 73
2019-07-23 20:00:00 28.4 12 Sudeste 35 Sudeste 0 -- -- 64
2019-07-23 19:00:00 29.5 16 Sudeste 35 Sudeste 0 -- -- 59
2019-07-23 18:00:00 30.3 18 Sudeste 45 Sudeste 0 -- -- 54
2019-07-23 17:00:00 30.8 24 Sudeste 47 Este 0 -- -- 50
2019-07-23 16:00:00 31 26 Sudeste 49 Sudeste 0 -- -- 50
2019-07-23 15:00:00 31.1 24 Sudeste 44 Sudeste 0 -- -- 50
2019-07-23 14:00:00 31.1 20 Sudeste 48 Sudeste 0 -- -- 50
2019-07-23 13:00:00 30.8 19 Sur 42 Sudeste 0 -- -- 49
2019-07-23 12:00:00 30.6 18 Sudeste 51 Sudeste 0 -- -- 51
2019-07-23 11:00:00 30 19 Sudeste 36 Sur 0 -- -- 53
2019-07-23 10:00:00 28.4 11 Sudeste 26 Sur 0 -- -- 59
2019-07-23 09:00:00 25.9 0 Calma 5 Este 0 -- -- 76
2019-07-23 08:00:00 21.5 4 Este 7 Este 0 -- -- 92
2019-07-23 07:00:00 21.2 3 Este 8 Este 0 -- -- 92
2019-07-23 06:00:00 21.7 0 Calma 9 Nordeste 0 -- -- 90
2019-07-23 05:00:00 22.8 0 Calma 11 Este 0 -- -- 87
2019-07-23 04:00:00 24 4 Sudeste 16 Sudeste 0 -- -- 83
2019-07-23 03:00:00 24.5 9 Sudeste 25 Sur 0 -- -- 82
2019-07-23 02:00:00 24.9 13 Sudeste 39 Este 0 -- -- 80
2019-07-23 01:00:00 25.7 26 Sudeste 51 Sudeste 0 -- -- 76
2019-07-23 00:00:00 25.9 16 Este 42 Sudeste 0 -- -- 74
2019-07-22 23:00:00 25.2 9 Sudeste 26 Sudeste 0 -- -- 78
2019-07-22 22:00:00 25.1 13 Sudeste 34 Sudeste 0 -- -- 79
2019-07-22 21:00:00 25.9 21 Sudeste 37 Sudeste 0 -- -- 75
2019-07-22 20:00:00 27.7 21 Sudeste 39 Sudeste 0 -- -- 67
2019-07-22 19:00:00 28.7 24 Sudeste 44 Este 0 -- -- 63
2019-07-22 18:00:00 29.4 23 Sudeste 45 Este 0 -- -- 60
2019-07-22 17:00:00 30.1 19 Sudeste 44 Sudeste 0 -- -- 59
2019-07-22 16:00:00 30.1 22 Sudeste 37 Sur 0 -- -- 56
2019-07-22 15:00:00 30.3 20 Sudeste 40 Sudeste 0 -- -- 56
2019-07-22 14:00:00 29.9 18 Sudeste 47 Sudeste 0 -- -- 58
2019-07-22 13:00:00 29.4 22 Sudeste 46 Sudeste 0 -- -- 61
2019-07-22 12:00:00 27.7 24 Este 41 Este 0 -- -- 68
2019-07-22 11:00:00 27.4 20 Sudeste 39 Este 0 -- -- 71
2019-07-22 10:00:00 26.2 15 Sudeste 25 Este 0 -- -- 76
2019-07-22 09:00:00 25.7 10 Sudeste 22 Sudeste 0 -- -- 79
2019-07-22 08:00:00 25 9 Este 16 Este 0 -- -- 82
2019-07-22 07:00:00 24.4 7 Este 12 Sudeste 0 -- -- 86
2019-07-22 06:00:00 24.7 5 Sudeste 13 Sudeste 0 -- -- 86
2019-07-22 05:00:00 24.9 10 Sudeste 22 Sudeste 0 -- -- 85
2019-07-22 04:00:00 25 11 Sudeste 21 Sudeste 0 -- -- 84
2019-07-22 03:00:00 24.7 6 Sudeste 12 Sudeste 0 -- -- 83
2019-07-22 02:00:00 23.9 3 Sudeste 24 Este 0 -- -- 79
2019-07-22 01:00:00 25.5 9 Sudeste 21 Este 0 -- -- 78
2019-07-22 00:00:00 25.6 10 Sudeste 18 Nordeste 0 -- -- 76